Ivory Ray — A8YK4 — position and weather

sailwx.info

Track history (hours):
 
Tides and Currents Weather Stations Pressure Air Temp Water Temp Dewpoint Dewpoint Depression Visibility Wind Speed Wind Dir Waves Ship Positions

Ivory Ray

Last reported at 2017-Sep-19 02:49 UTC. Time now 2017-Sep-19 18:40 UTC.
Position N 25°29' W 079°32'.

Length 147 m; draft 6.3 m.

Type: Ship. MMSI: 636015074.

Date/timePositionNaut miles runAvg speedWind from/ knotsBaromVisibWave heightAir tempDewpointWater temp
2017-Sep-19 02:49N 25°29' W 079°32'412.3
2017-Sep-19 02:28N 25°33' W 079°32'612.3
2017-Sep-19 02:00N 25°39' W 079°31'612.7
2017-Sep-19 01:30N 25°45' W 079°29'612.8
2017-Sep-19 01:00N 25°51' W 079°29'612.8
2017-Sep-19 00:30N 25°57' W 079°28'612.4
2017-Sep-19 00:00N 26°04' W 079°27'  
2017-Sep-16 18:07N 36°49' W 075°46'214.1
2017-Sep-16 18:00N 36°50' W 075°48'714.1
2017-Sep-16 17:30N 36°54' W 075°55'612.7
2017-Sep-16 17:00N 36°58' W 076°01'814.4
2017-Sep-16 16:28N 37°04' W 076°06'4913.2
2017-Sep-16 12:47N 37°53' W 076°10'513.1
2017-Sep-16 12:25N 37°58' W 076°12'513.1
2017-Sep-16 12:00N 38°03' W 076°13'713.5
2017-Sep-16 11:27N 38°10' W 076°15'613.6
2017-Sep-16 11:00N 38°16' W 076°18'611.4
2017-Sep-16 10:31N 38°21' W 076°21'813.8
2017-Sep-16 09:57N 38°29' W 076°24'613.5
2017-Sep-16 09:30N 38°34' W 076°26'713.3
2017-Sep-16 09:00N 38°41' W 076°26'713.2
2017-Sep-16 08:30N 38°47' W 076°25'612.9
2017-Sep-16 08:00N 38°54' W 076°24'612.5
2017-Sep-16 07:30N 38°60' W 076°23'612.0
2017-Sep-16 07:00N 39°06' W 076°24'611.7
2017-Sep-16 06:30N 39°11' W 076°27'4 8.4
2017-Sep-16 06:00N 39°13' W 076°32'0 0.8
2017-Sep-16 05:28N 39°13' W 076°32'0 0.0
2017-Sep-16 04:24N 39°13' W 076°32'0 0.0
2017-Sep-16 03:42N 39°13' W 076°32'0 0.0
2017-Sep-16 03:30N 39°13' W 076°32'0 0.0
2017-Sep-16 03:00N 39°13' W 076°32'0 0.0
2017-Sep-16 02:30N 39°13' W 076°32'0 0.0
2017-Sep-16 01:36N 39°13' W 076°32'0 0.0
2017-Sep-16 01:30N 39°13' W 076°32'0 0.0
2017-Sep-16 01:00N 39°13' W 076°32'0 0.0
2017-Sep-15 21:54N 39°13' W 076°32'0 0.0
2017-Sep-15 21:24N 39°13' W 076°32'0 0.0
2017-Sep-15 20:48N 39°13' W 076°32'0 0.0
2017-Sep-15 20:18N 39°13' W 076°32'0 0.0
2017-Sep-15 18:30N 39°13' W 076°32'0 0.0
2017-Sep-15 17:12N 39°13' W 076°32'0 0.0
2017-Sep-15 16:48N 39°13' W 076°32'0 0.0
2017-Sep-15 12:54N 39°13' W 076°32'0 0.0
2017-Sep-15 12:30N 39°13' W 076°32'1 1.2
2017-Sep-15 12:00N 39°13' W 076°32'3 5.8
2017-Sep-15 11:30N 39°11' W 076°28'612.1
2017-Sep-15 11:00N 39°09' W 076°21'511.0
2017-Sep-15 10:30N 39°12' W 076°15'612.3
2017-Sep-15 10:00N 39°18' W 076°13'612.1
2017-Sep-15 09:30N 39°22' W 076°07'611.7
2017-Sep-15 09:00N 39°26' W 076°01'510.7
2017-Sep-15 08:30N 39°29' W 075°56'4 8.3
2017-Sep-15 08:00N 39°32' W 075°52'3 5.7
2017-Sep-15 07:30N 39°32' W 075°48'4 7.4
2017-Sep-15 07:00N 39°33' W 075°44'4 7.8
2017-Sep-15 06:30N 39°33' W 075°39'4 7.4
2017-Sep-15 06:01N 39°34' W 075°34'3 6.9
2017-Sep-15 05:30N 39°37' W 075°35'612.6
2017-Sep-15 05:00N 39°42' W 075°31'611.0
2017-Sep-15 04:30N 39°47' W 075°27'4 8.7
2017-Sep-15 04:00N 39°50' W 075°22'510.6
2017-Sep-15 03:30N 39°51' W 075°16'4 8.9
2017-Sep-15 03:00N 39°53' W 075°10'3 6.3
2017-Sep-15 02:30N 39°56' W 075°08'3 6.6
2017-Sep-15 02:00N 39°58' W 075°06'0 0.5
2017-Sep-15 01:29N 39°59' W 075°06'0 0.0
2017-Sep-15 00:59N 39°59' W 075°06'0 0.0
2017-Sep-15 00:29N 39°59' W 075°06'0 0.0
2017-Sep-14 23:59N 39°59' W 075°06'0 0.0
2017-Sep-14 23:29N 39°59' W 075°06'0 0.0
2017-Sep-14 22:59N 39°59' W 075°06'0 0.0
2017-Sep-14 22:29N 39°59' W 075°06'0 0.0
2017-Sep-14 21:59N 39°59' W 075°06'0 0.0
2017-Sep-14 21:29N 39°59' W 075°06'0 0.0
2017-Sep-14 20:59N 39°59' W 075°06'0 0.0
2017-Sep-14 20:29N 39°59' W 075°06'0 0.0
2017-Sep-14 19:59N 39°59' W 075°06'0 0.0
2017-Sep-14 19:29N 39°59' W 075°06'0 0.0
2017-Sep-14 18:59N 39°59' W 075°06'0 0.0
2017-Sep-14 18:29N 39°59' W 075°06'0 0.0
2017-Sep-14 17:59N 39°59' W 075°06'0 0.0
2017-Sep-14 17:29N 39°59' W 075°06'0 0.0
2017-Sep-14 16:59N 39°59' W 075°06'0 0.0
2017-Sep-14 16:29N 39°59' W 075°06'0 0.0
2017-Sep-14 15:59N 39°59' W 075°06'0 0.0
2017-Sep-14 15:29N 39°59' W 075°06'0 0.0
2017-Sep-14 14:59N 39°59' W 075°06'0 0.0
2017-Sep-14 14:29N 39°59' W 075°06'0 0.0
2017-Sep-14 13:59N 39°59' W 075°06'0 0.0
2017-Sep-14 13:29N 39°59' W 075°06'0 0.0
2017-Sep-14 12:59N 39°59' W 075°06'0 0.0
2017-Sep-14 12:29N 39°59' W 075°06'0 0.0
2017-Sep-14 11:59N 39°59' W 075°06'0 0.0
2017-Sep-14 11:29N 39°59' W 075°06'0 0.0
2017-Sep-14 10:59N 39°59' W 075°06'0 0.0
2017-Sep-14 10:29N 39°59' W 075°06'0 0.0
2017-Sep-14 09:59N 39°59' W 075°06'0 0.0
2017-Sep-14 09:29N 39°59' W 075°06'0 0.0
2017-Sep-14 08:59N 39°59' W 075°06'0 0.0
2017-Sep-14 08:29N 39°59' W 075°06'0 0.0
2017-Sep-14 07:59N 39°59' W 075°06'0 0.0
2017-Sep-14 07:29N 39°59' W 075°06'0 0.0
2017-Sep-14 06:59N 39°59' W 075°06'0 0.0
2017-Sep-14 06:29N 39°59' W 075°06'0 0.0
2017-Sep-14 05:59N 39°59' W 075°06'0 0.0
2017-Sep-14 05:29N 39°59' W 075°06'0 0.0
2017-Sep-14 04:59N 39°59' W 075°06'0 0.0
2017-Sep-14 04:29N 39°59' W 075°06'0 0.0
2017-Sep-14 03:59N 39°59' W 075°06'0 0.0
2017-Sep-14 03:29N 39°59' W 075°06'0 0.0
2017-Sep-14 02:59N 39°59' W 075°06'0 0.0
2017-Sep-14 02:29N 39°59' W 075°06'0 0.0
2017-Sep-14 01:59N 39°59' W 075°06'0 0.0
2017-Sep-14 01:29N 39°59' W 075°06'0 0.1
2017-Sep-14 01:00N 39°59' W 075°06'1 1.2
2017-Sep-14 00:30N 39°58' W 075°07'2 5.0
2017-Sep-14 00:00N 39°56' W 075°08'3 6.4
2017-Sep-13 23:31N 39°53' W 075°09'4 7.0
2017-Sep-13 23:00N 39°52' W 075°13'4 7.9
2017-Sep-13 22:30N 39°51' W 075°18'4 8.8
2017-Sep-13 22:00N 39°49' W 075°23'5 9.0
2017-Sep-13 21:31N 39°47' W 075°28'5 9.2
2017-Sep-13 21:00N 39°42' W 075°31'5 9.1
2017-Sep-13 20:31N 39°38' W 075°34'4 8.8
2017-Sep-13 20:01N 39°34' W 075°33'5 9.1
2017-Sep-13 19:30N 39°30' W 075°34'612.0
2017-Sep-13 19:00N 39°24' W 075°30'613.0
2017-Sep-13 18:30N 39°19' W 075°24'612.7
2017-Sep-13 18:00N 39°15' W 075°19'612.5
2017-Sep-13 17:30N 39°09' W 075°15'612.2
2017-Sep-13 16:59N 39°04' W 075°10'1312.4
2017-Sep-13 15:59N 38°52' W 075°04'611.1
2017-Sep-13 15:27N 38°47' W 075°01'3 7.5
2017-Sep-13 15:00N 38°48' W 074°57'2 4.8
2017-Sep-13 14:30N 38°48' W 074°54'3 4.8
2017-Sep-13 13:57N 38°48' W 074°51'2 4.8
2017-Sep-13 13:30N 38°48' W 074°48'2 4.8
2017-Sep-13 13:00N 38°49' W 074°45'510.7
2017-Sep-13 12:30N 38°49' W 074°38'612.8
2017-Sep-13 12:00N 38°52' W 074°30'714.1
2017-Sep-13 11:31N 38°57' W 074°24'714.2
2017-Sep-13 11:01N 39°02' W 074°18'714.2
2017-Sep-13 10:31N 39°07' W 074°11'714.0
2017-Sep-13 10:01N 39°11' W 074°04'714.0
2017-Sep-13 09:30N 39°16' W 073°58'713.3
2017-Sep-13 09:00N 39°22' W 073°53'714.0
2017-Sep-13 08:31N 39°29' W 073°52'714.0
2017-Sep-13 08:00N 39°36' W 073°52'713.9
2017-Sep-13 07:30N 39°43' W 073°51'713.8
2017-Sep-13 07:00N 39°50' W 073°51'713.8
2017-Sep-13 06:30N 39°57' W 073°51'713.7
2017-Sep-13 06:00N 40°03' W 073°50'713.7
2017-Sep-13 05:31N 40°10' W 073°50'713.7
2017-Sep-13 05:00N 40°17' W 073°49'713.3
2017-Sep-13 04:30N 40°24' W 073°49'5 9.3
2017-Sep-13 04:00N 40°27' W 073°54'5 9.4
2017-Sep-13 03:30N 40°29' W 073°59'5 9.5
2017-Sep-13 03:00N 40°29' W 074°06'5 9.8
2017-Sep-13 02:31N 40°30' W 074°12'3 0.2
2017-Sep-12 13:32N 40°31' W 074°15'0 0.1
2017-Sep-12 13:29N 40°31' W 074°15'1 1.9
2017-Sep-12 12:52N 40°30' W 074°15'3 5.8
2017-Sep-12 12:24N 40°31' W 074°12'4 9.6
2017-Sep-12 12:01N 40°30' W 074°07'510.1
2017-Sep-12 11:30N 40°29' W 074°01'5 9.9
2017-Sep-12 11:00N 40°27' W 073°55'4 7.9
2017-Sep-12 10:30N 40°27' W 073°50'2 3.4
2017-Sep-12 10:00N 40°27' W 073°47'2 4.1
2017-Sep-12 09:30N 40°27' W 073°45'4 8.0
2017-Sep-12 09:00N 40°29' W 073°40'2 3.7
2017-Sep-12 08:30N 40°29' W 073°38'0 0.1
2017-Sep-12 07:50N 40°29' W 073°38'0 0.0
2017-Sep-12 07:11N 40°29' W 073°38'0 0.0
2017-Sep-12 06:59N 40°29' W 073°38'0 0.0
2017-Sep-11 20:37N 40°29' W 073°38'1 8.4
2017-Sep-11 20:30N 40°29' W 073°39'6112.3
2017-Sep-11 15:31N 39°45' W 072°43'414.4
2017-Sep-11 15:15N 39°42' W 072°39'414.4
2017-Sep-11 14:59N 39°40' W 072°36'  
Track history (hours):
 
Tides and Currents Weather Stations Pressure Air Temp Water Temp Dewpoint Dewpoint Depression Visibility Wind Speed Wind Dir Waves Ship Positions

Ivory Ray

Last reported at 2017-Sep-19 02:49 UTC. Time now 2017-Sep-19 18:40 UTC.
Position N 25°29' W 079°32'.

Length 147 m; draft 6.3 m.

Type: Ship. MMSI: 636015074.

Date/timePositionNaut miles runAvg speedWind from/ knotsBaromVisibWave heightAir tempDewpointWater temp
2017-Sep-19 02:49N 25°29' W 079°32'412.3
2017-Sep-19 02:28N 25°33' W 079°32'612.3
2017-Sep-19 02:00N 25°39' W 079°31'612.7
2017-Sep-19 01:30N 25°45' W 079°29'612.8
2017-Sep-19 01:00N 25°51' W 079°29'612.8
2017-Sep-19 00:30N 25°57' W 079°28'612.4
2017-Sep-19 00:00N 26°04' W 079°27'  
2017-Sep-16 18:07N 36°49' W 075°46'214.1
2017-Sep-16 18:00N 36°50' W 075°48'714.1
2017-Sep-16 17:30N 36°54' W 075°55'612.7
2017-Sep-16 17:00N 36°58' W 076°01'814.4
2017-Sep-16 16:28N 37°04' W 076°06'4913.2
2017-Sep-16 12:47N 37°53' W 076°10'513.1
2017-Sep-16 12:25N 37°58' W 076°12'513.1
2017-Sep-16 12:00N 38°03' W 076°13'713.5
2017-Sep-16 11:27N 38°10' W 076°15'613.6
2017-Sep-16 11:00N 38°16' W 076°18'611.4
2017-Sep-16 10:31N 38°21' W 076°21'813.8
2017-Sep-16 09:57N 38°29' W 076°24'613.5
2017-Sep-16 09:30N 38°34' W 076°26'713.3
2017-Sep-16 09:00N 38°41' W 076°26'713.2
2017-Sep-16 08:30N 38°47' W 076°25'612.9
2017-Sep-16 08:00N 38°54' W 076°24'612.5
2017-Sep-16 07:30N 38°60' W 076°23'612.0
2017-Sep-16 07:00N 39°06' W 076°24'611.7
2017-Sep-16 06:30N 39°11' W 076°27'4 8.4
2017-Sep-16 06:00N 39°13' W 076°32'0 0.8
2017-Sep-16 05:28N 39°13' W 076°32'0 0.0
2017-Sep-16 04:24N 39°13' W 076°32'0 0.0
2017-Sep-16 03:42N 39°13' W 076°32'0 0.0
2017-Sep-16 03:30N 39°13' W 076°32'0 0.0
2017-Sep-16 03:00N 39°13' W 076°32'0 0.0
2017-Sep-16 02:30N 39°13' W 076°32'0 0.0
2017-Sep-16 01:36N 39°13' W 076°32'0 0.0
2017-Sep-16 01:30N 39°13' W 076°32'0 0.0
2017-Sep-16 01:00N 39°13' W 076°32'0 0.0
2017-Sep-15 21:54N 39°13' W 076°32'0 0.0
2017-Sep-15 21:24N 39°13' W 076°32'0 0.0
2017-Sep-15 20:48N 39°13' W 076°32'0 0.0
2017-Sep-15 20:18N 39°13' W 076°32'0 0.0
2017-Sep-15 18:30N 39°13' W 076°32'0 0.0
2017-Sep-15 17:12N 39°13' W 076°32'0 0.0
2017-Sep-15 16:48N 39°13' W 076°32'0 0.0
2017-Sep-15 12:54N 39°13' W 076°32'0 0.0
2017-Sep-15 12:30N 39°13' W 076°32'1 1.2
2017-Sep-15 12:00N 39°13' W 076°32'3 5.8
2017-Sep-15 11:30N 39°11' W 076°28'612.1
2017-Sep-15 11:00N 39°09' W 076°21'511.0
2017-Sep-15 10:30N 39°12' W 076°15'612.3
2017-Sep-15 10:00N 39°18' W 076°13'612.1
2017-Sep-15 09:30N 39°22' W 076°07'611.7
2017-Sep-15 09:00N 39°26' W 076°01'510.7
2017-Sep-15 08:30N 39°29' W 075°56'4 8.3
2017-Sep-15 08:00N 39°32' W 075°52'3 5.7
2017-Sep-15 07:30N 39°32' W 075°48'4 7.4
2017-Sep-15 07:00N 39°33' W 075°44'4 7.8
2017-Sep-15 06:30N 39°33' W 075°39'4 7.4
2017-Sep-15 06:01N 39°34' W 075°34'3 6.9
2017-Sep-15 05:30N 39°37' W 075°35'612.6
2017-Sep-15 05:00N 39°42' W 075°31'611.0
2017-Sep-15 04:30N 39°47' W 075°27'4 8.7
2017-Sep-15 04:00N 39°50' W 075°22'510.6
2017-Sep-15 03:30N 39°51' W 075°16'4 8.9
2017-Sep-15 03:00N 39°53' W 075°10'3 6.3
2017-Sep-15 02:30N 39°56' W 075°08'3 6.6
2017-Sep-15 02:00N 39°58' W 075°06'0 0.5
2017-Sep-15 01:29N 39°59' W 075°06'0 0.0
2017-Sep-15 00:59N 39°59' W 075°06'0 0.0
2017-Sep-15 00:29N 39°59' W 075°06'0 0.0
2017-Sep-14 23:59N 39°59' W 075°06'0 0.0
2017-Sep-14 23:29N 39°59' W 075°06'0 0.0
2017-Sep-14 22:59N 39°59' W 075°06'0 0.0
2017-Sep-14 22:29N 39°59' W 075°06'0 0.0
2017-Sep-14 21:59N 39°59' W 075°06'0 0.0
2017-Sep-14 21:29N 39°59' W 075°06'0 0.0
2017-Sep-14 20:59N 39°59' W 075°06'0 0.0
2017-Sep-14 20:29N 39°59' W 075°06'0 0.0
2017-Sep-14 19:59N 39°59' W 075°06'0 0.0
2017-Sep-14 19:29N 39°59' W 075°06'0 0.0
2017-Sep-14 18:59N 39°59' W 075°06'0 0.0
2017-Sep-14 18:29N 39°59' W 075°06'0 0.0
2017-Sep-14 17:59N 39°59' W 075°06'0 0.0
2017-Sep-14 17:29N 39°59' W 075°06'0 0.0
2017-Sep-14 16:59N 39°59' W 075°06'0 0.0
2017-Sep-14 16:29N 39°59' W 075°06'0 0.0
2017-Sep-14 15:59N 39°59' W 075°06'0 0.0
2017-Sep-14 15:29N 39°59' W 075°06'0 0.0
2017-Sep-14 14:59N 39°59' W 075°06'0 0.0
2017-Sep-14 14:29N 39°59' W 075°06'0 0.0
2017-Sep-14 13:59N 39°59' W 075°06'0 0.0
2017-Sep-14 13:29N 39°59' W 075°06'0 0.0
2017-Sep-14 12:59N 39°59' W 075°06'0 0.0
2017-Sep-14 12:29N 39°59' W 075°06'0 0.0
2017-Sep-14 11:59N 39°59' W 075°06'0 0.0
2017-Sep-14 11:29N 39°59' W 075°06'0 0.0
2017-Sep-14 10:59N 39°59' W 075°06'0 0.0
2017-Sep-14 10:29N 39°59' W 075°06'0 0.0
2017-Sep-14 09:59N 39°59' W 075°06'0 0.0
2017-Sep-14 09:29N 39°59' W 075°06'0 0.0
2017-Sep-14 08:59N 39°59' W 075°06'0 0.0
2017-Sep-14 08:29N 39°59' W 075°06'0 0.0
2017-Sep-14 07:59N 39°59' W 075°06'0 0.0
2017-Sep-14 07:29N 39°59' W 075°06'0 0.0
2017-Sep-14 06:59N 39°59' W 075°06'0 0.0
2017-Sep-14 06:29N 39°59' W 075°06'0 0.0
2017-Sep-14 05:59N 39°59' W 075°06'0 0.0
2017-Sep-14 05:29N 39°59' W 075°06'0 0.0
2017-Sep-14 04:59N 39°59' W 075°06'0 0.0
2017-Sep-14 04:29N 39°59' W 075°06'0 0.0
2017-Sep-14 03:59N 39°59' W 075°06'0 0.0
2017-Sep-14 03:29N 39°59' W 075°06'0 0.0
2017-Sep-14 02:59N 39°59' W 075°06'0 0.0
2017-Sep-14 02:29N 39°59' W 075°06'0 0.0
2017-Sep-14 01:59N 39°59' W 075°06'0 0.0
2017-Sep-14 01:29N 39°59' W 075°06'0 0.1
2017-Sep-14 01:00N 39°59' W 075°06'1 1.2
2017-Sep-14 00:30N 39°58' W 075°07'2 5.0
2017-Sep-14 00:00N 39°56' W 075°08'3 6.4
2017-Sep-13 23:31N 39°53' W 075°09'4 7.0
2017-Sep-13 23:00N 39°52' W 075°13'4 7.9
2017-Sep-13 22:30N 39°51' W 075°18'4 8.8
2017-Sep-13 22:00N 39°49' W 075°23'5 9.0
2017-Sep-13 21:31N 39°47' W 075°28'5 9.2
2017-Sep-13 21:00N 39°42' W 075°31'5 9.1
2017-Sep-13 20:31N 39°38' W 075°34'4 8.8
2017-Sep-13 20:01N 39°34' W 075°33'5 9.1
2017-Sep-13 19:30N 39°30' W 075°34'612.0
2017-Sep-13 19:00N 39°24' W 075°30'613.0
2017-Sep-13 18:30N 39°19' W 075°24'612.7
2017-Sep-13 18:00N 39°15' W 075°19'612.5
2017-Sep-13 17:30N 39°09' W 075°15'612.2
2017-Sep-13 16:59N 39°04' W 075°10'1312.4
2017-Sep-13 15:59N 38°52' W 075°04'611.1
2017-Sep-13 15:27N 38°47' W 075°01'3 7.5
2017-Sep-13 15:00N 38°48' W 074°57'2 4.8
2017-Sep-13 14:30N 38°48' W 074°54'3 4.8
2017-Sep-13 13:57N 38°48' W 074°51'2 4.8
2017-Sep-13 13:30N 38°48' W 074°48'2 4.8
2017-Sep-13 13:00N 38°49' W 074°45'510.7
2017-Sep-13 12:30N 38°49' W 074°38'612.8
2017-Sep-13 12:00N 38°52' W 074°30'714.1
2017-Sep-13 11:31N 38°57' W 074°24'714.2
2017-Sep-13 11:01N 39°02' W 074°18'714.2
2017-Sep-13 10:31N 39°07' W 074°11'714.0
2017-Sep-13 10:01N 39°11' W 074°04'714.0
2017-Sep-13 09:30N 39°16' W 073°58'713.3
2017-Sep-13 09:00N 39°22' W 073°53'714.0
2017-Sep-13 08:31N 39°29' W 073°52'714.0
2017-Sep-13 08:00N 39°36' W 073°52'713.9
2017-Sep-13 07:30N 39°43' W 073°51'713.8
2017-Sep-13 07:00N 39°50' W 073°51'713.8
2017-Sep-13 06:30N 39°57' W 073°51'713.7
2017-Sep-13 06:00N 40°03' W 073°50'713.7
2017-Sep-13 05:31N 40°10' W 073°50'713.7
2017-Sep-13 05:00N 40°17' W 073°49'713.3
2017-Sep-13 04:30N 40°24' W 073°49'5 9.3
2017-Sep-13 04:00N 40°27' W 073°54'5 9.4
2017-Sep-13 03:30N 40°29' W 073°59'5 9.5
2017-Sep-13 03:00N 40°29' W 074°06'5 9.8
2017-Sep-13 02:31N 40°30' W 074°12'3 0.2
2017-Sep-12 13:32N 40°31' W 074°15'0 0.1
2017-Sep-12 13:29N 40°31' W 074°15'1 1.9
2017-Sep-12 12:52N 40°30' W 074°15'3 5.8
2017-Sep-12 12:24N 40°31' W 074°12'4 9.6
2017-Sep-12 12:01N 40°30' W 074°07'510.1
2017-Sep-12 11:30N 40°29' W 074°01'5 9.9
2017-Sep-12 11:00N 40°27' W 073°55'4 7.9
2017-Sep-12 10:30N 40°27' W 073°50'2 3.4
2017-Sep-12 10:00N 40°27' W 073°47'2 4.1
2017-Sep-12 09:30N 40°27' W 073°45'4 8.0
2017-Sep-12 09:00N 40°29' W 073°40'2 3.7
2017-Sep-12 08:30N 40°29' W 073°38'0 0.1
2017-Sep-12 07:50N 40°29' W 073°38'0 0.0
2017-Sep-12 07:11N 40°29' W 073°38'0 0.0
2017-Sep-12 06:59N 40°29' W 073°38'0 0.0
2017-Sep-11 20:37N 40°29' W 073°38'1 8.4
2017-Sep-11 20:30N 40°29' W 073°39'6112.3
2017-Sep-11 15:31N 39°45' W 072°43'414.4
2017-Sep-11 15:15N 39°42' W 072°39'414.4
2017-Sep-11 14:59N 39°40' W 072°36'  

Dump ship's entire track history